Time;durP1;ratioP1;P1;durP2;ratioP2;P2;SDS_P1;SDS_P2;PMS_P1;PMS_P2;Temp;Humidity;BMP_temperature;BMP_pressure;BME280_temperature;BME280_humidity;BME280_pressure;Samples;Min_cycle;Max_cycle;Signal;HPM_P1;HPM_P2
2022/05/10 01:46:31;;;;;;;7.00;3.50;;;;;;;9.69;32.89;101151.11;103315;1267;108614;-80
2022/05/10 01:49:13;;;;;;;6.30;3.50;;;;;;;9.67;32.84;101152.34;106071;1273;96563;-82
2022/05/10 01:51:49;;;;;;;8.20;3.60;;;;;;;9.63;32.87;101152.91;107571;1273;94606;-82
2022/05/10 01:54:55;;;;;;;5.00;3.70;;;;;;;9.60;32.74;101151.58;107493;1274;110771;-82
2022/05/10 01:57:28;;;;;;;9.50;3.40;;;;;;;9.56;33.08;101151.98;107584;1273;108882;-82
2022/05/10 02:00:08;;;;;;;6.30;3.20;;;;;;;9.53;32.96;101155.34;107620;1273;105798;-82
2022/05/10 02:02:49;;;;;;;4.90;3.50;;;;;;;9.47;33.33;101151.40;107547;1274;94814;-82
2022/05/10 02:05:29;;;;;;;7.30;3.50;;;;;;;9.42;33.43;101149.73;107672;1272;94553;-82
2022/05/10 02:08:05;;;;;;;9.20;4.50;;;;;;;9.37;33.31;101144.60;107665;1273;109601;-82
2022/05/10 02:10:41;;;;;;;12.80;4.10;;;;;;;9.33;33.45;101140.98;107604;1274;108403;-82
2022/05/10 02:13:17;;;;;;;8.60;3.30;;;;;;;9.29;33.58;101139.65;107620;1274;108741;-82
2022/05/10 02:15:58;;;;;;;9.20;3.70;;;;;;;9.24;33.53;101146.84;107469;1273;94691;-82
2022/05/10 02:18:35;;;;;;;10.20;3.90;;;;;;;9.20;33.70;101144.13;107703;1273;94760;-82
2022/05/10 02:21:15;;;;;;;12.40;4.40;;;;;;;9.15;33.74;101149.04;107683;1271;110749;-83
2022/05/10 02:23:52;;;;;;;7.20;3.40;;;;;;;9.12;33.97;101146.28;107649;1274;108080;-82
2022/05/10 02:26:29;;;;;;;10.30;4.00;;;;;;;9.08;34.24;101143.38;107658;1273;109202;-82
2022/05/10 02:29:10;;;;;;;7.80;4.20;;;;;;;9.06;34.54;101146.02;107677;1273;94771;-82
2022/05/10 02:34:38;;;;;;;8.80;3.80;;;;;;;8.96;34.68;101144.39;107635;1273;110533;-82
2022/05/10 02:37:09;;;;;;;;;;;;;;;8.91;34.74;101138.38;107695;1272;108750;-82
2022/05/10 02:39:41;;;;;;;7.20;4.00;;;;;;;8.86;34.64;101136.88;107645;1273;108846;-82
2022/05/10 02:42:16;;;;;;;9.20;4.30;;;;;;;8.81;34.84;101137.80;106174;1274;96469;-81
2022/05/10 02:44:50;;;;;;;15.70;3.90;;;;;;;8.76;34.76;101132.98;106019;1274;96482;-81
2022/05/10 02:47:31;;;;;;;8.40;4.10;;;;;;;8.72;35.03;101133.20;107555;1274;110080;-82
2022/05/10 02:50:05;;;;;;;6.70;4.20;;;;;;;8.68;34.84;101134.11;107568;1274;107719;-82
2022/05/10 02:52:39;;;;;;;8.60;3.70;;;;;;;8.65;34.98;101136.93;107594;1274;105556;-81
2022/05/10 02:55:17;;;;;;;7.50;4.60;;;;;;;8.63;35.05;101132.62;107498;1276;95103;-81
2022/05/10 02:57:52;;;;;;;6.10;4.00;;;;;;;8.63;35.33;101135.92;107539;1274;94907;-81
2022/05/10 03:00:26;;;;;;;9.40;5.00;;;;;;;8.62;35.19;101136.98;107647;1274;110949;-82
2022/05/10 03:03:05;;;;;;;8.00;4.50;;;;;;;8.61;35.57;101134.02;107533;1275;109984;-82
2022/05/10 03:05:37;;;;;;;9.10;4.80;;;;;;;8.61;36.13;101135.39;107604;1274;109001;-81
2022/05/10 03:08:10;;;;;;;17.20;4.50;;;;;;;8.58;36.01;101130.91;107604;1274;94948;-81
2022/05/10 03:10:42;;;;;;;9.70;4.40;;;;;;;8.56;36.03;101133.02;107603;1274;94799;-82
2022/05/10 03:13:14;;;;;;;7.20;4.10;;;;;;;8.56;36.05;101132.33;107623;1274;111247;-82
2022/05/10 03:15:46;;;;;;;7.30;4.60;;;;;;;8.55;35.88;101132.34;107542;1276;107595;-81
2022/05/10 03:18:18;;;;;;;7.70;4.20;;;;;;;8.55;35.75;101126.80;107699;1274;106868;-82
2022/05/10 03:20:50;;;;;;;10.20;4.20;;;;;;;8.54;36.01;101124.03;107471;1276;94980;-81
2022/05/10 03:23:22;;;;;;;6.40;4.00;;;;;;;8.54;35.97;101127.84;107728;1274;94554;-82
2022/05/10 03:25:55;;;;;;;8.30;4.20;;;;;;;8.54;36.01;101126.61;107639;1274;108210;-82
2022/05/10 03:28:27;;;;;;;8.90;4.40;;;;;;;8.56;35.94;101127.98;107615;1275;108754;-82
2022/05/10 03:30:59;;;;;;;8.30;4.30;;;;;;;8.58;36.11;101122.94;107593;1274;108597;-82
2022/05/10 03:33:31;;;;;;;11.40;4.90;;;;;;;8.60;36.18;101121.87;107675;1274;94405;-82
2022/05/10 03:36:03;;;;;;;9.40;4.10;;;;;;;8.63;36.16;101121.69;107569;1274;94661;-82
2022/05/10 03:38:36;;;;;;;9.50;4.90;;;;;;;8.66;36.36;101118.37;107662;1274;108588;-82
2022/05/10 03:41:08;;;;;;;9.20;4.60;;;;;;;8.68;36.35;101112.98;107637;1274;108298;-82
2022/05/10 03:43:40;;;;;;;7.10;4.20;;;;;;;8.68;36.28;101111.59;107556;1274;108886;-81
2022/05/10 03:46:12;;;;;;;7.90;4.30;;;;;;;8.68;36.33;101110.21;107620;1274;94604;-82
2022/05/10 03:48:44;;;;;;;10.40;3.90;;;;;;;8.69;36.26;101105.67;107597;1276;95003;-81
2022/05/10 03:51:16;;;;;;;8.50;4.70;;;;;;;8.70;36.14;101105.14;107458;1274;110114;-82
2022/05/10 03:53:48;;;;;;;8.40;4.40;;;;;;;8.73;36.22;101100.77;107581;1274;108919;-82
2022/05/10 03:56:20;;;;;;;9.70;4.20;;;;;;;8.78;36.06;101101.40;107559;1274;107424;-81
2022/05/10 03:58:52;;;;;;;10.20;4.10;;;;;;;8.81;35.92;101100.34;107576;1274;94978;-82
2022/05/10 04:01:24;;;;;;;7.30;3.70;;;;;;;8.85;35.83;101102.04;107581;1274;94664;-83
2022/05/10 04:03:56;;;;;;;9.90;4.00;;;;;;;8.90;35.60;101103.36;107623;1274;107860;-84
2022/05/10 04:06:32;;;;;;;13.70;4.10;;;;;;;8.95;35.38;101103.11;107602;1274;108669;-81
2022/05/10 04:09:05;;;;;;;6.90;4.00;;;;;;;8.99;35.43;101102.55;107568;1274;109146;-81
2022/05/10 04:11:37;;;;;;;9.20;3.90;;;;;;;9.04;35.45;101099.55;107553;1274;94665;-82
2022/05/10 04:14:09;;;;;;;9.70;3.90;;;;;;;9.11;35.33;101101.02;107596;1274;94789;-81
2022/05/10 04:16:41;;;;;;;8.70;4.20;;;;;;;9.16;35.11;101096.98;107622;1274;111099;-83
2022/05/10 04:19:13;;;;;;;6.00;3.80;;;;;;;9.21;35.13;101094.83;107754;1274;109409;-83
2022/05/10 04:21:45;;;;;;;8.50;4.20;;;;;;;9.27;35.29;101101.33;107702;1276;107680;-83
2022/05/10 04:24:18;;;;;;;11.80;4.30;;;;;;;9.33;35.12;101101.07;107776;1276;94439;-80
2022/05/10 04:26:50;;;;;;;7.40;3.90;;;;;;;9.40;34.98;101101.52;107765;1274;94176;-82
2022/05/10 04:29:22;;;;;;;12.00;3.80;;;;;;;9.46;35.00;101103.67;107660;1274;108576;-81
2022/05/10 04:31:54;;;;;;;12.10;4.10;;;;;;;9.53;34.50;101105.31;107687;1274;107884;-79
2022/05/10 04:34:26;;;;;;;7.90;4.10;;;;;;;9.60;34.55;101109.21;107794;1274;107698;-83
2022/05/10 04:36:58;;;;;;;9.50;4.00;;;;;;;9.69;34.44;101109.95;107870;1274;94404;-82
2022/05/10 04:41:24;;;;;;;10.20;3.90;;;;;;;9.77;34.44;101102.02;107855;1274;94396;-82
2022/05/10 04:42:22;;;;;;;13.30;4.20;;;;;;;9.84;34.27;101099.63;107802;1276;109917;-84
2022/05/10 04:44:53;;;;;;;10.50;3.50;;;;;;;9.91;34.38;101100.58;107837;1274;108213;-83
2022/05/10 04:47:29;;;;;;;11.70;4.80;;;;;;;10.02;34.38;101104.56;107662;1274;109363;-84
2022/05/10 04:50:01;;;;;;;10.70;4.20;;;;;;;10.16;34.46;101106.44;107590;1274;94990;-81
2022/05/10 04:52:33;;;;;;;14.40;4.10;;;;;;;10.29;34.42;101105.02;107404;1274;94470;-81
2022/05/10 04:55:07;;;;;;;12.80;4.40;;;;;;;10.50;34.36;101111.43;107610;1274;110786;-81
2022/05/10 04:57:41;;;;;;;8.40;4.20;;;;;;;10.70;34.21;101110.55;106552;1274;107773;-80
2022/05/10 05:00:16;;;;;;;10.10;4.30;;;;;;;10.89;33.75;101105.81;107594;1274;107856;-79
2022/05/10 05:02:48;;;;;;;15.70;4.80;;;;;;;11.03;33.55;101105.02;107470;1276;94747;-79
2022/05/10 05:05:20;;;;;;;11.50;4.90;;;;;;;11.23;33.40;101101.82;107565;1274;94937;-79
2022/05/10 05:07:52;;;;;;;11.60;4.30;;;;;;;11.58;33.33;101098.44;107463;1276;109876;-79
2022/05/10 05:10:24;;;;;;;14.30;4.00;;;;;;;12.51;32.53;101099.11;107580;1272;107170;-78
2022/05/10 05:12:56;;;;;;;7.60;3.50;;;;;;;14.64;31.13;101095.46;107575;1274;107785;-80
2022/05/10 05:15:29;;;;;;;7.10;4.00;;;;;;;16.84;28.57;101091.10;107547;1274;94689;-80
2022/05/10 05:18:03;;;;;;;9.00;3.70;;;;;;;18.86;26.29;101088.27;107504;1274;95188;-80
2022/05/10 05:20:38;;;;;;;8.70;3.50;;;;;;;20.83;25.28;101084.64;106539;1274;109077;-81
2022/05/10 05:23:11;;;;;;;5.80;3.60;;;;;;;22.75;23.59;101076.78;106098;1275;107840;-80
2022/05/10 05:25:43;;;;;;;9.10;3.80;;;;;;;24.30;21.64;101073.44;106015;1275;107967;-77
2022/05/10 05:28:16;;;;;;;9.00;3.60;;;;;;;25.41;20.29;101069.39;105912;1275;96509;-78
2022/05/10 05:30:49;;;;;;;8.50;4.00;;;;;;;26.52;19.16;101071.84;106054;1274;96386;-76
2022/05/10 05:33:22;;;;;;;6.90;3.60;;;;;;;27.39;17.86;101069.70;107575;1274;111028;-79
2022/05/10 05:35:54;;;;;;;10.90;3.80;;;;;;;28.19;17.29;101072.41;107513;1274;109660;-79
2022/05/10 05:38:27;;;;;;;9.90;3.40;;;;;;;28.81;16.54;101072.11;107025;1274;108059;-80
2022/05/10 05:40:59;;;;;;;8.70;3.30;;;;;;;29.40;15.71;101075.10;107560;1274;94924;-82
2022/05/10 05:43:31;;;;;;;5.90;3.10;;;;;;;29.90;15.24;101070.89;107572;1274;94733;-80
2022/05/10 05:46:03;;;;;;;8.10;2.80;;;;;;;30.46;14.89;101077.55;107568;1274;111354;-80
2022/05/10 05:48:37;;;;;;;10.40;3.10;;;;;;;31.13;14.63;101072.35;107607;1273;108719;-80
2022/05/10 05:51:09;;;;;;;10.00;3.20;;;;;;;31.74;13.99;101066.51;107529;1274;108929;-80
2022/05/10 05:53:41;;;;;;;8.20;2.60;;;;;;;32.11;12.91;101064.64;107372;1274;192905;-80
2022/05/10 05:56:13;;;;;;;4.30;2.70;;;;;;;32.24;12.61;101063.94;107492;1276;94505;-79
2022/05/10 05:58:45;;;;;;;8.30;2.70;;;;;;;32.20;12.20;101064.85;107520;1274;110773;-80
2022/05/10 06:01:18;;;;;;;6.50;2.90;;;;;;;32.15;12.50;101064.55;107488;1275;106632;-78
2022/05/10 06:03:51;;;;;;;12.50;2.90;;;;;;;32.27;12.35;101059.83;107530;1274;108885;-78
2022/05/10 06:06:25;;;;;;;5.80;2.60;;;;;;;32.50;12.01;101063.54;107556;1274;95101;-78
2022/05/10 06:08:57;;;;;;;5.40;2.00;;;;;;;32.64;11.67;101061.58;107564;1274;94537;-79
2022/05/10 06:11:29;;;;;;;11.60;3.10;;;;;;;33.05;11.99;101058.42;107533;1275;110880;-80
2022/05/10 06:14:01;;;;;;;12.50;3.20;;;;;;;33.62;12.19;101053.02;107535;1276;109463;-81
2022/05/10 06:16:33;;;;;;;11.80;2.80;;;;;;;33.88;11.44;101049.77;107558;1274;107766;-80
2022/05/10 06:19:05;;;;;;;12.60;3.10;;;;;;;34.11;11.01;101055.84;107513;1274;94767;-80
2022/05/10 06:21:39;;;;;;;11.50;2.90;;;;;;;33.94;10.08;101051.10;107570;1274;94786;-80
2022/05/10 06:24:11;;;;;;;10.30;2.60;;;;;;;33.53;10.62;101049.23;107566;1274;111331;-79
2022/05/10 06:26:43;;;;;;;5.50;2.60;;;;;;;33.53;10.41;101045.78;107533;1274;109024;-76
2022/05/10 06:29:15;;;;;;;7.50;2.90;;;;;;;33.42;10.79;101035.73;107563;1274;107653;-73
2022/05/10 06:31:49;;;;;;;9.10;4.00;;;;;;;33.62;10.74;101034.77;107555;1274;94774;-69
2022/05/10 06:34:21;;;;;;;11.20;5.40;;;;;;;33.97;10.91;101032.52;107519;1274;94526;-70
2022/05/10 06:36:53;;;;;;;12.80;4.70;;;;;;;34.43;10.64;101039.04;107563;1274;108639;-66
2022/05/10 06:39:26;;;;;;;11.80;3.10;;;;;;;34.40;10.51;101034.37;107543;1274;108979;-68
2022/05/10 06:41:58;;;;;;;11.90;4.40;;;;;;;34.01;10.17;101035.59;107577;1274;108929;-68
2022/05/10 06:44:30;;;;;;;10.80;3.20;;;;;;;33.81;10.41;101038.83;107562;1274;94841;-67
2022/05/10 06:47:03;;;;;;;9.70;3.10;;;;;;;33.61;10.00;101040.90;107565;1274;94609;-68
2022/05/10 06:49:38;;;;;;;10.80;3.60;;;;;;;33.22;9.97;101034.23;107554;1274;111285;-70
2022/05/10 06:52:20;;;;;;;10.00;3.60;;;;;;;33.03;10.30;101032.30;107399;1275;107263;-69
2022/05/10 06:54:52;;;;;;;8.30;3.30;;;;;;;32.59;10.12;101033.38;107541;1274;108811;-68
2022/05/10 06:57:24;;;;;;;18.40;4.30;;;;;;;32.39;10.47;101027.48;107532;1274;94480;-66
2022/05/10 06:59:56;;;;;;;9.20;3.50;;;;;;;32.58;10.58;101028.95;107564;1274;94695;-70
2022/05/10 07:02:28;;;;;;;12.80;3.30;;;;;;;32.81;10.06;101032.98;107411;1274;109634;-68
2022/05/10 07:05:00;;;;;;;7.30;3.70;;;;;;;32.78;10.25;101034.02;107501;1274;109582;-67
2022/05/10 07:07:33;;;;;;;13.10;4.30;;;;;;;32.50;10.22;101033.27;107555;1274;107975;-67
2022/05/10 07:10:08;;;;;;;14.10;3.90;;;;;;;32.58;10.31;101029.66;107568;1274;94726;-68
2022/05/10 07:12:42;;;;;;;9.40;4.40;;;;;;;32.73;10.41;101024.69;107574;1274;94579;-69
2022/05/10 07:15:18;;;;;;;12.60;4.40;;;;;;;32.83;10.26;101027.39;107543;1274;111312;-67
2022/05/10 07:17:54;;;;;;;13.50;4.40;;;;;;;33.01;9.94;101026.35;107555;1274;106637;-67
2022/05/10 07:20:25;;;;;;;13.80;3.80;;;;;;;32.88;9.97;101030.60;107541;1274;107698;-67
2022/05/10 07:22:58;;;;;;;8.40;3.50;;;;;;;32.65;10.26;101020.89;107559;1274;94669;-67
2022/05/10 07:25:30;;;;;;;18.80;4.40;;;;;;;32.76;10.04;101023.84;107559;1274;94654;-67
2022/05/10 07:28:03;;;;;;;19.80;4.90;;;;;;;32.74;10.08;101017.15;107554;1274;111134;-67
2022/05/10 07:30:35;;;;;;;11.00;4.20;;;;;;;32.69;10.32;101013.10;107558;1274;107977;-67
2022/05/10 07:33:08;;;;;;;7.40;3.90;;;;;;;32.78;9.78;101018.55;107493;1276;108943;-67
2022/05/10 07:38:34;;;;;;;10.40;3.70;;;;;;;32.66;10.01;101008.27;107569;1274;95460;-67
2022/05/10 07:41:06;;;;;;;11.50;3.90;;;;;;;32.69;10.41;101005.02;107582;1274;111240;-67
2022/05/10 07:43:39;;;;;;;9.10;4.10;;;;;;;32.79;9.97;101000.42;107542;1274;108932;-67
2022/05/10 07:46:12;;;;;;;13.90;3.90;;;;;;;33.09;10.12;101007.22;107504;1274;109327;-67
2022/05/10 07:48:44;;;;;;;10.40;3.50;;;;;;;33.50;9.94;101004.33;107511;1274;94610;-68
2022/05/10 07:51:16;;;;;;;13.60;5.30;;;;;;;33.90;10.05;101005.00;107584;1275;95001;-67
2022/05/10 07:53:48;;;;;;;11.80;4.30;;;;;;;34.51;10.19;101002.09;107602;1274;110998;-67
2022/05/10 07:56:24;;;;;;;10.60;3.40;;;;;;;34.85;10.03;101004.79;107527;1274;109667;-67
2022/05/10 07:58:58;;;;;;;7.80;3.10;;;;;;;35.20;9.56;101002.88;107476;1274;109747;-66
2022/05/10 08:01:30;;;;;;;9.40;3.20;;;;;;;35.17;9.12;101003.17;107527;1273;94721;-67
2022/05/10 08:04:03;;;;;;;17.00;4.50;;;;;;;35.11;9.36;101005.52;107291;1276;94655;-67
2022/05/10 08:06:35;;;;;;;10.30;4.00;;;;;;;35.29;9.45;101005.60;107589;1274;110929;-67
2022/05/10 08:09:07;;;;;;;9.10;2.60;;;;;;;35.58;9.43;101003.46;107460;1276;108949;-67
2022/05/10 08:11:39;;;;;;;7.50;2.80;;;;;;;35.77;9.18;101006.11;107549;1274;108802;-67
2022/05/10 08:14:11;;;;;;;6.60;2.80;;;;;;;35.38;8.45;101012.73;107531;1274;95041;-67
2022/05/10 08:16:43;;;;;;;7.20;2.20;;;;;;;34.74;8.60;101015.35;107527;1276;94342;-68
2022/05/10 08:19:18;;;;;;;6.70;2.60;;;;;;;34.48;8.81;101011.29;107514;1276;111364;-67
2022/05/10 08:21:52;;;;;;;6.20;2.80;;;;;;;34.41;9.00;101011.66;107554;1274;109023;-68
2022/05/10 08:24:25;;;;;;;4.30;2.20;;;;;;;34.18;8.61;101007.41;107525;1274;109623;-68
2022/05/10 08:26:57;;;;;;;3.90;2.20;;;;;;;33.67;8.63;100999.23;107563;1274;94708;-67
2022/05/10 08:29:29;;;;;;;4.90;2.00;;;;;;;33.19;8.77;100991.57;107502;1276;94909;-67
2022/05/10 08:32:02;;;;;;;5.60;2.70;;;;;;;33.05;9.28;100988.64;107569;1275;110741;-67
2022/05/10 08:34:52;;;;;;;3.30;2.10;;;;;;;32.96;9.23;100987.29;107417;1276;108022;-67
2022/05/10 08:37:23;;;;;;;6.50;2.50;;;;;;;32.51;9.07;100984.05;107450;1276;109786;-67
2022/05/10 08:39:57;;;;;;;8.40;3.20;;;;;;;32.25;9.57;100978.84;107393;1276;94522;-67
2022/05/10 08:42:33;;;;;;;6.20;3.00;;;;;;;31.98;9.80;100977.90;107537;1274;94819;-68
2022/05/10 08:45:10;;;;;;;9.50;2.70;;;;;;;31.95;9.47;100981.55;107543;1274;110115;-68
2022/05/10 08:47:43;;;;;;;8.00;2.70;;;;;;;31.94;9.57;100979.06;107522;1276;107855;-68
2022/05/10 08:50:17;;;;;;;8.90;2.30;;;;;;;31.91;9.84;100984.59;107527;1274;106387;-68
2022/05/10 08:53:10;;;;;;;8.10;3.20;;;;;;;32.01;10.14;100982.05;107516;1274;94723;-68
2022/05/10 08:55:47;;;;;;;6.90;2.60;;;;;;;32.21;9.97;100979.49;107529;1274;94906;-67
2022/05/10 08:58:39;;;;;;;6.40;2.50;;;;;;;32.04;9.83;100978.66;107536;1274;109802;-68
2022/05/10 09:01:36;;;;;;;5.70;3.60;;;;;;;31.44;9.86;100966.46;107444;1274;107678;-68
2022/05/10 09:04:20;;;;;;;8.60;2.60;;;;;;;31.62;10.21;100968.18;107495;1274;106787;-67
2022/05/10 09:07:00;;;;;;;6.90;3.20;;;;;;;31.82;10.03;100971.79;107497;1274;94813;-68
2022/05/10 09:09:43;;;;;;;5.00;2.80;;;;;;;31.36;9.83;100972.88;107524;1274;94710;-68
2022/05/10 09:12:20;;;;;;;11.30;3.10;;;;;;;30.79;10.29;100960.12;107546;1274;110233;-70
2022/05/10 09:14:56;;;;;;;4.80;2.40;;;;;;;30.27;10.07;100967.94;107562;1274;107931;-68
2022/05/10 09:17:31;;;;;;;8.30;2.80;;;;;;;29.84;10.37;100962.35;107487;1276;108150;-70
2022/05/10 09:20:04;;;;;;;7.50;3.10;;;;;;;29.55;10.56;100961.95;107580;1274;94921;-69
2022/05/10 09:23:11;;;;;;;14.30;3.10;;;;;;;29.48;10.72;100949.11;107561;1274;94990;-69
2022/05/10 09:25:45;;;;;;;5.40;2.60;;;;;;;29.77;10.97;100947.99;107534;1276;110080;-69
2022/05/10 09:28:30;;;;;;;9.00;2.70;;;;;;;29.90;10.83;100946.16;107566;1274;108591;-68
2022/05/10 09:34:49;;;;;;;5.30;2.70;;;;;;;29.49;10.56;100936.12;107176;1279;94544;-66
2022/05/10 09:37:26;;;;;;;9.60;2.90;;;;;;;29.63;10.56;100929.90;107154;1279;94688;-69
2022/05/10 09:40:27;;;;;;;7.10;2.40;;;;;;;29.49;10.66;100930.61;107181;1278;111141;-68
2022/05/10 09:43:22;;;;;;;4.50;2.50;;;;;;;28.90;11.06;100916.17;107158;1279;107199;-67
2022/05/10 09:46:10;;;;;;;5.20;2.50;;;;;;;28.67;10.95;100928.85;107109;1279;108858;-68
2022/05/10 09:48:44;;;;;;;11.10;2.90;;;;;;;28.56;10.86;100919.23;107140;1279;95035;-68
2022/05/10 09:51:36;;;;;;;6.70;2.80;;;;;;;28.65;11.18;100915.23;107183;1279;94558;-68
2022/05/10 09:54:22;;;;;;;9.60;3.60;;;;;;;29.19;11.15;100914.20;107181;1279;111560;-66
2022/05/10 09:56:56;;;;;;;8.30;2.90;;;;;;;29.07;10.73;100918.29;107152;1279;108852;-66
2022/05/10 09:59:32;;;;;;;6.80;2.30;;;;;;;28.87;10.85;100911.35;107161;1278;107770;-67
2022/05/10 10:02:05;;;;;;;5.60;2.40;;;;;;;28.57;10.77;100917.33;107120;1277;94920;-67
2022/05/10 10:04:40;;;;;;;6.30;2.90;;;;;;;28.43;11.15;100911.42;107170;1279;94944;-67
2022/05/10 10:07:18;;;;;;;10.70;2.50;;;;;;;28.58;11.36;100905.08;107133;1279;111141;-67
2022/05/10 10:09:53;;;;;;;5.40;2.40;;;;;;;28.63;11.20;100900.83;107081;1279;108932;-68
2022/05/10 10:12:36;;;;;;;9.70;2.70;;;;;;;28.46;11.11;100895.48;107355;1274;108107;-68
2022/05/10 10:15:21;;;;;;;13.40;3.90;;;;;;;28.20;10.98;100899.61;107538;1274;94973;-67
2022/05/10 10:17:55;;;;;;;11.50;5.90;;;;;;;28.36;11.70;100885.00;107470;1275;95788;-67
2022/05/10 10:20:36;;;;;;;6.40;2.70;;;;;;;28.80;11.23;100882.27;107538;1274;111162;-67
2022/05/10 10:23:20;;;;;;;7.60;3.20;;;;;;;28.37;11.13;100880.84;107415;1275;107140;-66
2022/05/10 10:25:56;;;;;;;6.10;2.30;;;;;;;28.09;11.23;100886.02;107523;1274;108786;-67
2022/05/10 10:28:32;;;;;;;5.60;2.70;;;;;;;27.67;11.35;100885.31;107499;1274;96765;-67
2022/05/10 10:31:13;;;;;;;7.40;3.20;;;;;;;27.45;11.66;100878.42;107530;1274;96737;-67
2022/05/10 10:33:51;;;;;;;9.50;3.50;;;;;;;27.55;12.10;100869.09;107513;1274;111439;-67
2022/05/10 10:36:27;;;;;;;11.70;6.40;;;;;;;27.85;11.85;100862.92;107548;1274;108572;-67
2022/05/10 10:39:05;;;;;;;13.80;7.40;;;;;;;28.23;12.37;100856.75;107521;1274;108191;-66
2022/05/10 10:41:45;;;;;;;5.80;2.70;;;;;;;28.45;12.00;100853.16;107558;1274;96075;-67
2022/05/10 10:44:22;;;;;;;6.50;2.70;;;;;;;28.35;11.63;100849.01;107542;1274;96107;-66
2022/05/10 10:47:06;;;;;;;4.70;2.60;;;;;;;27.95;11.30;100842.63;107435;1277;111326;-67
2022/05/10 10:49:46;;;;;;;7.70;2.80;;;;;;;27.41;11.44;100842.40;107473;1276;108958;-67
2022/05/10 10:52:18;;;;;;;7.00;2.60;;;;;;;26.71;11.30;100839.95;107553;1274;107809;-67
2022/05/10 10:54:51;;;;;;;5.40;2.80;;;;;;;25.96;11.93;100836.38;107509;1274;96091;-67
2022/05/10 10:57:57;;;;;;;8.70;2.80;;;;;;;25.35;12.18;100846.29;107530;1274;96067;-66
2022/05/10 11:00:37;;;;;;;7.60;3.50;;;;;;;24.93;12.66;100836.74;107452;1274;113256;-67
2022/05/10 11:03:20;;;;;;;15.00;6.60;;;;;;;24.79;12.75;100831.54;107507;1276;108821;-66
2022/05/10 11:06:23;;;;;;;8.20;4.10;;;;;;;25.03;13.32;100828.88;107541;1274;109481;-67
2022/05/10 11:09:17;;;;;;;9.20;3.50;;;;;;;25.32;13.61;100826.11;107469;1274;96210;-67
2022/05/10 11:12:07;;;;;;;7.10;4.10;;;;;;;25.39;13.03;100824.73;107475;1276;96254;-67
2022/05/10 11:14:59;;;;;;;8.10;2.60;;;;;;;25.35;12.98;100820.33;107449;1276;113249;-67
2022/05/10 11:17:43;;;;;;;7.90;2.90;;;;;;;25.14;12.76;100815.09;107548;1274;109024;-67
2022/05/10 11:20:25;;;;;;;5.00;2.50;;;;;;;24.69;12.50;100805.36;107467;1277;107723;-67
2022/05/10 11:23:06;;;;;;;7.30;2.80;;;;;;;24.25;12.64;100801.60;107506;1274;96236;-67
2022/05/10 11:26:01;;;;;;;10.10;3.10;;;;;;;23.85;12.48;100801.59;107486;1274;96083;-67
2022/05/10 11:29:09;;;;;;;5.60;2.60;;;;;;;23.48;12.73;100804.02;107438;1276;112404;-66
2022/05/10 11:31:48;;;;;;;10.10;6.30;;;;;;;23.18;13.05;100794.54;107006;1281;107959;-66
2022/05/10 11:34:47;;;;;;;7.10;2.60;;;;;;;23.32;13.29;100781.95;106845;1281;107529;-66
2022/05/10 11:37:27;;;;;;;10.30;5.10;;;;;;;23.39;12.79;100775.91;106775;1281;96564;-66
2022/05/10 11:40:28;;;;;;;10.00;5.90;;;;;;;23.53;12.74;100767.52;106812;1281;96193;-66
2022/05/10 11:43:22;;;;;;;14.60;6.70;;;;;;;23.90;13.32;100761.65;107037;1280;111231;-66
2022/05/10 11:46:12;;;;;;;9.40;2.60;;;;;;;24.21;13.14;100760.17;106836;1280;108705;-67
2022/05/10 11:49:01;;;;;;;9.10;3.40;;;;;;;24.11;13.26;100759.95;106972;1280;108847;-66
2022/05/10 11:51:55;;;;;;;7.00;3.60;;;;;;;23.82;13.48;100742.22;107006;1281;96032;-67
2022/05/10 11:55:05;;;;;;;8.90;3.50;;;;;;;23.67;13.91;100735.02;106991;1281;96258;-66
2022/05/10 11:57:38;;;;;;;5.30;3.40;;;;;;;23.39;13.82;100734.58;106919;1281;111442;-66
2022/05/10 12:00:45;;;;;;;6.40;2.60;;;;;;;23.05;13.55;100739.50;106977;1281;107913;-66
2022/05/10 12:03:54;;;;;;;6.60;3.10;;;;;;;22.66;13.99;100732.86;106995;1281;108868;-66
2022/05/10 12:06:42;;;;;;;8.90;3.90;;;;;;;22.55;14.29;100725.76;106843;1280;96313;-67
2022/05/10 12:09:58;;;;;;;5.10;3.10;;;;;;;22.51;14.47;100725.81;107197;1274;95943;-68
2022/05/10 12:12:57;;;;;;;6.30;2.80;;;;;;;22.34;14.72;100733.33;107452;1274;112801;-66
2022/05/10 12:21:54;;;;;;;6.10;2.40;;;;;;;21.92;15.24;100717.19;107503;1274;96092;-67
2022/05/10 12:24:33;;;;;;;5.30;2.20;;;;;;;21.99;15.02;100707.11;107533;1274;96213;-67
2022/05/10 12:27:37;;;;;;;7.50;2.40;;;;;;;22.14;14.99;100706.44;107565;1274;111386;-67
2022/05/10 12:30:29;;;;;;;6.30;2.10;;;;;;;22.02;14.60;100705.19;107570;1274;109435;-67
2022/05/10 12:33:35;;;;;;;9.70;3.70;;;;;;;21.74;15.13;100696.22;107513;1274;108985;-66
2022/05/10 12:36:11;;;;;;;6.60;2.30;;;;;;;21.75;15.63;100694.90;107508;1274;96209;-66
2022/05/10 12:38:50;;;;;;;7.30;1.80;;;;;;;21.67;15.81;100688.69;107530;1274;96440;-66
2022/05/10 12:41:47;;;;;;;7.90;2.50;;;;;;;21.72;15.84;100686.45;107476;1276;112484;-67
2022/05/10 12:44:56;;;;;;;5.00;2.10;;;;;;;21.73;15.50;100686.40;107479;1274;106870;-66
2022/05/10 12:47:51;;;;;;;7.90;2.50;;;;;;;21.68;15.48;100680.36;107519;1274;107555;-66
2022/05/10 12:50:41;;;;;;;3.50;2.10;;;;;;;21.64;15.40;100674.27;107568;1274;96167;-66
2022/05/10 12:53:23;;;;;;;5.20;3.50;;;;;;;21.64;15.32;100668.03;107484;1276;96205;-66
2022/05/10 12:56:05;;;;;;;6.80;2.40;;;;;;;21.75;15.75;100665.86;107535;1274;112186;-66
2022/05/10 12:58:45;;;;;;;8.70;2.50;;;;;;;21.80;15.05;100674.38;107545;1274;107836;-66
2022/05/10 13:01:20;;;;;;;5.00;2.40;;;;;;;21.62;15.08;100665.40;107493;1274;108867;-66
2022/05/10 13:03:57;;;;;;;6.00;2.10;;;;;;;21.56;15.37;100662.11;107550;1274;96063;-66
2022/05/10 13:06:37;;;;;;;7.10;2.10;;;;;;;21.48;15.36;100661.80;107540;1274;96062;-67
2022/05/10 13:09:31;;;;;;;8.00;2.60;;;;;;;21.34;15.62;100656.41;107451;1276;112126;-65
2022/05/10 13:12:09;;;;;;;7.50;2.60;;;;;;;21.31;15.70;100648.49;107471;1276;107842;-66
2022/05/10 13:14:44;;;;;;;4.70;2.50;;;;;;;21.30;15.85;100646.08;107551;1274;109258;-67
2022/05/10 13:17:24;;;;;;;8.80;2.10;;;;;;;21.31;15.88;100641.02;107547;1274;96214;-67
2022/05/10 13:19:58;;;;;;;5.30;2.60;;;;;;;21.40;15.97;100636.16;107515;1274;95837;-67
2022/05/10 13:22:31;;;;;;;8.40;2.20;;;;;;;21.52;16.35;100631.44;107575;1274;112647;-67
2022/05/10 13:25:06;;;;;;;4.50;2.20;;;;;;;21.66;16.07;100630.89;107532;1274;108403;-66
2022/05/10 13:27:41;;;;;;;10.20;5.80;;;;;;;21.66;15.97;100624.70;107495;1274;107756;-66
2022/05/10 13:30:17;;;;;;;8.00;2.20;;;;;;;21.76;15.98;100624.20;107496;1274;97324;-65
2022/05/10 13:32:52;;;;;;;7.30;2.50;;;;;;;21.68;15.54;100619.31;107507;1274;96022;-64
2022/05/10 13:35:27;;;;;;;6.30;2.10;;;;;;;21.56;15.57;100615.89;107470;1274;112789;-65
2022/05/10 13:38:03;;;;;;;5.60;2.10;;;;;;;21.41;15.75;100609.94;107487;1274;108993;-67
2022/05/10 13:40:40;;;;;;;6.30;2.50;;;;;;;21.32;15.94;100606.15;107447;1276;107858;-68
2022/05/10 13:43:17;;;;;;;15.80;3.00;;;;;;;21.32;15.66;100613.05;107458;1276;96238;-67
2022/05/10 13:45:55;;;;;;;8.10;2.20;;;;;;;21.07;15.61;100612.98;107579;1274;96098;-67
2022/05/10 13:48:30;;;;;;;9.40;2.40;;;;;;;20.86;15.46;100603.02;107531;1276;112497;-67
2022/05/10 13:51:10;;;;;;;7.50;2.70;;;;;;;20.74;15.82;100603.15;107576;1274;107322;-66
2022/05/10 13:53:42;;;;;;;4.90;2.60;;;;;;;20.65;15.99;100601.46;107550;1274;107790;-65
2022/05/10 13:56:24;;;;;;;10.70;2.90;;;;;;;20.58;16.39;100588.30;107605;1274;96113;-67
2022/05/10 13:58:57;;;;;;;4.40;2.30;;;;;;;20.53;16.75;100587.81;106337;1275;97727;-66
2022/05/10 14:01:50;;;;;;;14.40;6.10;;;;;;;20.53;17.45;100578.80;106008;1274;111853;-70
2022/05/10 14:04:23;;;;;;;20.40;12.80;;;;;;;20.68;18.46;100565.73;107539;1274;107549;-68